Energy Champion — MJUZ7 — position and weather

sailwx.info

Track history (hours):
 
Tides and Currents Weather Stations Pressure Air Temp Water Temp Dewpoint Dewpoint Depression Visibility Wind Speed Wind Dir Waves Ship Positions

Energy Champion

Last reported at 2016-Jan-25 19:33 UTC. Time now 2016-Feb-05 22:11 UTC.
Position N 35°55' E 025°35'.
Warning: this ship's position is 11 days out of date.

Length 228 m; draft 12.2 m.

Type: Ship. MMSI: 235009420.

Date/timePositionNaut miles runAvg speedWind from/ knotsBaromVisibWave heightAir tempDewpointWater temp
2016-Jan-25 19:33N 35°55' E 025°35'13412.2
2016-Jan-25 08:31N 37°36' E 023°45'1212.1
2016-Jan-25 07:33N 37°47' E 023°38'8 8.5
2016-Jan-25 06:33N 37°51' E 023°29'1010.2
2016-Jan-25 05:34N 37°53' E 023°16'9 8.5
2016-Jan-25 04:33N 37°55' E 023°06'  
2016-Jan-22 20:32N 37°55' E 023°05'4 3.3
2016-Jan-22 19:26N 37°53' E 023°10'910.9
2016-Jan-22 18:33N 37°52' E 023°21'9 9.2
2016-Jan-22 17:33N 37°50' E 023°33'2 2.4
2016-Jan-22 16:32N 37°52' E 023°33'0 0.1
2016-Jan-22 15:26N 37°52' E 023°33'0 0.0
2016-Jan-22 14:32N 37°52' E 023°33'0 0.0
2016-Jan-22 13:20N 37°52' E 023°33'0 0.0
2016-Jan-22 12:32N 37°52' E 023°33'0 0.0
2016-Jan-22 11:26N 37°52' E 023°33'0 0.0
2016-Jan-22 10:32N 37°52' E 023°34'0 0.0
2016-Jan-22 09:32N 37°52' E 023°33'0 0.0
2016-Jan-22 08:32N 37°52' E 023°33'0 0.0
2016-Jan-22 07:26N 37°52' E 023°33'0 0.0
2016-Jan-22 06:29N 37°52' E 023°33'0 0.0
2016-Jan-22 05:26N 37°52' E 023°33'0 0.5
2016-Jan-22 04:32N 37°52' E 023°33'2 2.3
2016-Jan-22 03:33N 37°51' E 023°36'4 4.1
2016-Jan-22 02:33N 37°49' E 023°40'9 9.1
2016-Jan-22 01:34N 37°41' E 023°45'1312.6
2016-Jan-22 00:33N 37°29' E 023°49'43911.2
2016-Jan-20 09:32N 36°19' E 014°47'1212.3
2016-Jan-20 08:33N 36°22' E 014°33'1212.3
2016-Jan-20 07:33N 36°25' E 014°18'1212.4
2016-Jan-20 06:33N 36°29' E 014°03'1312.5
2016-Jan-20 05:33N 36°32' E 013°48'55312.2
2016-Jan-18 08:17N 37°08' E 002°19'1014.1
2016-Jan-18 07:33N 37°06' E 002°06'3715.4
2016-Jan-18 05:08N 36°58' E 001°21'915.4
2016-Jan-18 04:33N 36°56' E 001°10'1514.9
2016-Jan-18 03:32N 36°53' E 000°51'3014.6
2016-Jan-18 01:28N 36°47' E 000°14'1414.4
2016-Jan-18 00:29N 36°44' W 000°03'3014.6
2016-Jan-17 22:24N 36°37' W 000°40'6315.2
2016-Jan-17 18:17N 36°24' W 001°56'1215.1
2016-Jan-17 17:30N 36°22' W 002°10'1515.0
2016-Jan-17 16:32N 36°19' W 002°28'1310.7
2016-Jan-17 15:18N 36°12' W 002°42'0 0.3
2016-Jan-17 14:24N 36°12' W 002°42'6 3.1
2016-Jan-17 12:33N 36°15' W 002°36'4 3.7
2016-Jan-17 11:28N 36°14' W 002°40'0 0.2
2016-Jan-17 10:28N 36°14' W 002°41'1 0.6
2016-Jan-17 09:27N 36°14' W 002°41'10 5.1
2016-Jan-17 07:28N 36°17' W 002°53'11714.8
2016-Jan-16 23:33N 36°00' W 005°17'1615.2
2016-Jan-16 22:31N 35°55' W 005°35'10413.9
2016-Jan-16 15:06N 36°10' W 007°42'2214.1
2016-Jan-16 13:32N 36°15' W 008°08'1313.3
2016-Jan-16 12:32N 36°19' W 008°24'1313.3
2016-Jan-16 11:32N 36°22' W 008°40'1212.1
2016-Jan-16 10:32N 36°25' W 008°55'1414.0
2016-Jan-16 09:32N 36°28' W 009°11'1313.4
2016-Jan-16 08:32N 36°35' W 009°26'1313.1
2016-Jan-16 07:32N 36°44' W 009°37'1414.2
2016-Jan-16 06:32N 36°58' W 009°42'1514.6
2016-Jan-16 05:32N 37°12' W 009°46'1514.6
2016-Jan-16 04:32N 37°26' W 009°50'1312.8
2016-Jan-16 03:33N 37°39' W 009°53'1414.1
2016-Jan-16 02:32N 37°53' W 009°57'1414.3
2016-Jan-16 01:32N 38°07' W 010°02'1414.2
2016-Jan-16 00:32N 38°20' W 010°06'1313.4
2016-Jan-15 23:33N 38°33' W 010°10'1514.8
2016-Jan-15 22:32N 38°48' W 010°12'1313.5
2016-Jan-15 21:33N 39°01' W 010°12'1615.3
2016-Jan-15 20:32N 39°17' W 010°12'  
Track history (hours):
 
Tides and Currents Weather Stations Pressure Air Temp Water Temp Dewpoint Dewpoint Depression Visibility Wind Speed Wind Dir Waves Ship Positions

Energy Champion

Last reported at 2016-Jan-25 19:33 UTC. Time now 2016-Feb-05 22:11 UTC.
Position N 35°55' E 025°35'.
Warning: this ship's position is 11 days out of date.

Length 228 m; draft 12.2 m.

Type: Ship. MMSI: 235009420.

Date/timePositionNaut miles runAvg speedWind from/ knotsBaromVisibWave heightAir tempDewpointWater temp
2016-Jan-25 19:33N 35°55' E 025°35'13412.2
2016-Jan-25 08:31N 37°36' E 023°45'1212.1
2016-Jan-25 07:33N 37°47' E 023°38'8 8.5
2016-Jan-25 06:33N 37°51' E 023°29'1010.2
2016-Jan-25 05:34N 37°53' E 023°16'9 8.5
2016-Jan-25 04:33N 37°55' E 023°06'  
2016-Jan-22 20:32N 37°55' E 023°05'4 3.3
2016-Jan-22 19:26N 37°53' E 023°10'910.9
2016-Jan-22 18:33N 37°52' E 023°21'9 9.2
2016-Jan-22 17:33N 37°50' E 023°33'2 2.4
2016-Jan-22 16:32N 37°52' E 023°33'0 0.1
2016-Jan-22 15:26N 37°52' E 023°33'0 0.0
2016-Jan-22 14:32N 37°52' E 023°33'0 0.0
2016-Jan-22 13:20N 37°52' E 023°33'0 0.0
2016-Jan-22 12:32N 37°52' E 023°33'0 0.0
2016-Jan-22 11:26N 37°52' E 023°33'0 0.0
2016-Jan-22 10:32N 37°52' E 023°34'0 0.0
2016-Jan-22 09:32N 37°52' E 023°33'0 0.0
2016-Jan-22 08:32N 37°52' E 023°33'0 0.0
2016-Jan-22 07:26N 37°52' E 023°33'0 0.0
2016-Jan-22 06:29N 37°52' E 023°33'0 0.0
2016-Jan-22 05:26N 37°52' E 023°33'0 0.5
2016-Jan-22 04:32N 37°52' E 023°33'2 2.3
2016-Jan-22 03:33N 37°51' E 023°36'4 4.1
2016-Jan-22 02:33N 37°49' E 023°40'9 9.1
2016-Jan-22 01:34N 37°41' E 023°45'1312.6
2016-Jan-22 00:33N 37°29' E 023°49'43911.2
2016-Jan-20 09:32N 36°19' E 014°47'1212.3
2016-Jan-20 08:33N 36°22' E 014°33'1212.3
2016-Jan-20 07:33N 36°25' E 014°18'1212.4
2016-Jan-20 06:33N 36°29' E 014°03'1312.5
2016-Jan-20 05:33N 36°32' E 013°48'55312.2
2016-Jan-18 08:17N 37°08' E 002°19'1014.1
2016-Jan-18 07:33N 37°06' E 002°06'3715.4
2016-Jan-18 05:08N 36°58' E 001°21'915.4
2016-Jan-18 04:33N 36°56' E 001°10'1514.9
2016-Jan-18 03:32N 36°53' E 000°51'3014.6
2016-Jan-18 01:28N 36°47' E 000°14'1414.4
2016-Jan-18 00:29N 36°44' W 000°03'3014.6
2016-Jan-17 22:24N 36°37' W 000°40'6315.2
2016-Jan-17 18:17N 36°24' W 001°56'1215.1
2016-Jan-17 17:30N 36°22' W 002°10'1515.0
2016-Jan-17 16:32N 36°19' W 002°28'1310.7
2016-Jan-17 15:18N 36°12' W 002°42'0 0.3
2016-Jan-17 14:24N 36°12' W 002°42'6 3.1
2016-Jan-17 12:33N 36°15' W 002°36'4 3.7
2016-Jan-17 11:28N 36°14' W 002°40'0 0.2
2016-Jan-17 10:28N 36°14' W 002°41'1 0.6
2016-Jan-17 09:27N 36°14' W 002°41'10 5.1
2016-Jan-17 07:28N 36°17' W 002°53'11714.8
2016-Jan-16 23:33N 36°00' W 005°17'1615.2
2016-Jan-16 22:31N 35°55' W 005°35'10413.9
2016-Jan-16 15:06N 36°10' W 007°42'2214.1
2016-Jan-16 13:32N 36°15' W 008°08'1313.3
2016-Jan-16 12:32N 36°19' W 008°24'1313.3
2016-Jan-16 11:32N 36°22' W 008°40'1212.1
2016-Jan-16 10:32N 36°25' W 008°55'1414.0
2016-Jan-16 09:32N 36°28' W 009°11'1313.4
2016-Jan-16 08:32N 36°35' W 009°26'1313.1
2016-Jan-16 07:32N 36°44' W 009°37'1414.2
2016-Jan-16 06:32N 36°58' W 009°42'1514.6
2016-Jan-16 05:32N 37°12' W 009°46'1514.6
2016-Jan-16 04:32N 37°26' W 009°50'1312.8
2016-Jan-16 03:33N 37°39' W 009°53'1414.1
2016-Jan-16 02:32N 37°53' W 009°57'1414.3
2016-Jan-16 01:32N 38°07' W 010°02'1414.2
2016-Jan-16 00:32N 38°20' W 010°06'1313.4
2016-Jan-15 23:33N 38°33' W 010°10'1514.8
2016-Jan-15 22:32N 38°48' W 010°12'1313.5
2016-Jan-15 21:33N 39°01' W 010°12'1615.3
2016-Jan-15 20:32N 39°17' W 010°12'  

Dump ship's entire track history